sensor_id;sensor_type;location;lat;lon;timestamp;P1;durP1;ratioP1;P2;durP2;ratioP2
21418;SDS011;10870;51.384;10.316;2023-03-04T00:01:50;55.35;;;25.25;;
21418;SDS011;10870;51.384;10.316;2023-03-04T00:03:57;55.85;;;26.90;;
21418;SDS011;10870;51.384;10.316;2023-03-04T00:06:03;57.67;;;30.38;;
21418;SDS011;10870;51.384;10.316;2023-03-04T00:08:17;56.53;;;27.75;;
21418;SDS011;10870;51.384;10.316;2023-03-04T00:10:23;72.95;;;38.30;;
21418;SDS011;10870;51.384;10.316;2023-03-04T00:12:29;45.78;;;23.60;;
21418;SDS011;10870;51.384;10.316;2023-03-04T00:14:41;66.28;;;34.90;;
21418;SDS011;10870;51.384;10.316;2023-03-04T00:16:46;58.83;;;31.02;;
21418;SDS011;10870;51.384;10.316;2023-03-04T00:18:53;44.55;;;26.50;;
21418;SDS011;10870;51.384;10.316;2023-03-04T00:20:58;42.47;;;23.80;;
21418;SDS011;10870;51.384;10.316;2023-03-04T00:23:05;76.53;;;40.53;;
21418;SDS011;10870;51.384;10.316;2023-03-04T00:25:09;58.30;;;27.20;;
21418;SDS011;10870;51.384;10.316;2023-03-04T00:27:11;48.10;;;23.98;;
21418;SDS011;10870;51.384;10.316;2023-03-04T00:29:18;59.20;;;28.13;;
21418;SDS011;10870;51.384;10.316;2023-03-04T00:31:22;101.13;;;48.15;;
21418;SDS011;10870;51.384;10.316;2023-03-04T00:33:31;57.97;;;30.42;;
21418;SDS011;10870;51.384;10.316;2023-03-04T00:35:33;64.28;;;28.75;;
21418;SDS011;10870;51.384;10.316;2023-03-04T00:37:42;60.78;;;29.45;;
21418;SDS011;10870;51.384;10.316;2023-03-04T00:39:52;62.10;;;29.77;;
21418;SDS011;10870;51.384;10.316;2023-03-04T00:42:00;53.03;;;24.20;;
21418;SDS011;10870;51.384;10.316;2023-03-04T00:44:04;62.40;;;29.00;;
21418;SDS011;10870;51.384;10.316;2023-03-04T00:46:08;53.03;;;27.75;;
21418;SDS011;10870;51.384;10.316;2023-03-04T00:48:10;42.53;;;21.88;;
21418;SDS011;10870;51.384;10.316;2023-03-04T00:50:18;43.83;;;21.65;;
21418;SDS011;10870;51.384;10.316;2023-03-04T00:52:27;45.85;;;23.25;;
21418;SDS011;10870;51.384;10.316;2023-03-04T00:54:29;38.65;;;20.67;;
21418;SDS011;10870;51.384;10.316;2023-03-04T00:56:38;37.97;;;18.63;;
21418;SDS011;10870;51.384;10.316;2023-03-04T00:58:47;43.45;;;22.38;;
21418;SDS011;10870;51.384;10.316;2023-03-04T01:00:52;46.83;;;23.35;;
21418;SDS011;10870;51.384;10.316;2023-03-04T01:03:00;37.35;;;18.83;;
21418;SDS011;10870;51.384;10.316;2023-03-04T01:05:01;42.15;;;20.13;;
21418;SDS011;10870;51.384;10.316;2023-03-04T01:07:08;37.58;;;18.77;;
21418;SDS011;10870;51.384;10.316;2023-03-04T01:09:10;38.65;;;20.20;;
21418;SDS011;10870;51.384;10.316;2023-03-04T01:11:14;43.03;;;19.38;;
21418;SDS011;10870;51.384;10.316;2023-03-04T01:13:16;43.33;;;21.85;;
21418;SDS011;10870;51.384;10.316;2023-03-04T01:15:25;43.50;;;22.58;;
21418;SDS011;10870;51.384;10.316;2023-03-04T01:17:27;39.42;;;21.25;;
21418;SDS011;10870;51.384;10.316;2023-03-04T01:19:31;45.38;;;21.00;;
21418;SDS011;10870;51.384;10.316;2023-03-04T01:21:40;43.75;;;23.73;;
21418;SDS011;10870;51.384;10.316;2023-03-04T01:23:43;39.17;;;21.42;;
21418;SDS011;10870;51.384;10.316;2023-03-04T01:25:44;43.17;;;21.30;;
21418;SDS011;10870;51.384;10.316;2023-03-04T01:27:49;39.97;;;19.88;;
21418;SDS011;10870;51.384;10.316;2023-03-04T01:29:56;48.20;;;22.30;;
21418;SDS011;10870;51.384;10.316;2023-03-04T01:31:57;44.17;;;21.38;;
21418;SDS011;10870;51.384;10.316;2023-03-04T01:34:00;45.83;;;20.63;;
21418;SDS011;10870;51.384;10.316;2023-03-04T01:36:02;47.95;;;21.70;;
21418;SDS011;10870;51.384;10.316;2023-03-04T01:38:05;44.35;;;21.58;;
21418;SDS011;10870;51.384;10.316;2023-03-04T01:40:06;40.45;;;22.27;;
21418;SDS011;10870;51.384;10.316;2023-03-04T01:42:20;37.65;;;20.40;;
21418;SDS011;10870;51.384;10.316;2023-03-04T01:44:21;38.90;;;18.63;;
21418;SDS011;10870;51.384;10.316;2023-03-04T01:46:29;42.75;;;17.13;;
21418;SDS011;10870;51.384;10.316;2023-03-04T01:48:41;38.25;;;18.38;;
21418;SDS011;10870;51.384;10.316;2023-03-04T01:50:45;38.88;;;18.27;;
21418;SDS011;10870;51.384;10.316;2023-03-04T01:52:47;37.83;;;18.27;;
21418;SDS011;10870;51.384;10.316;2023-03-04T01:54:50;44.22;;;20.65;;
21418;SDS011;10870;51.384;10.316;2023-03-04T01:56:54;40.50;;;16.40;;
21418;SDS011;10870;51.384;10.316;2023-03-04T01:59:06;43.55;;;16.85;;
21418;SDS011;10870;51.384;10.316;2023-03-04T02:01:09;47.72;;;20.33;;
21418;SDS011;10870;51.384;10.316;2023-03-04T02:03:16;50.22;;;19.38;;
21418;SDS011;10870;51.384;10.316;2023-03-04T02:05:21;40.42;;;18.52;;
21418;SDS011;10870;51.384;10.316;2023-03-04T02:07:26;42.08;;;17.45;;
21418;SDS011;10870;51.384;10.316;2023-03-04T02:09:28;39.17;;;16.90;;
21418;SDS011;10870;51.384;10.316;2023-03-04T02:11:30;48.35;;;20.33;;
21418;SDS011;10870;51.384;10.316;2023-03-04T02:13:37;39.65;;;17.55;;
21418;SDS011;10870;51.384;10.316;2023-03-04T02:15:41;33.65;;;17.15;;
21418;SDS011;10870;51.384;10.316;2023-03-04T02:17:47;41.00;;;16.58;;
21418;SDS011;10870;51.384;10.316;2023-03-04T02:22:06;41.28;;;17.85;;
21418;SDS011;10870;51.384;10.316;2023-03-04T02:26:24;37.25;;;14.70;;
21418;SDS011;10870;51.384;10.316;2023-03-04T02:28:27;45.45;;;17.63;;
21418;SDS011;10870;51.384;10.316;2023-03-04T02:30:28;28.00;;;14.18;;
21418;SDS011;10870;51.384;10.316;2023-03-04T02:32:31;37.75;;;14.73;;
21418;SDS011;10870;51.384;10.316;2023-03-04T02:34:35;34.63;;;15.57;;
21418;SDS011;10870;51.384;10.316;2023-03-04T02:36:38;37.55;;;14.85;;
21418;SDS011;10870;51.384;10.316;2023-03-04T02:38:45;34.58;;;16.45;;
21418;SDS011;10870;51.384;10.316;2023-03-04T02:40:48;38.33;;;15.93;;
21418;SDS011;10870;51.384;10.316;2023-03-04T02:42:52;40.65;;;16.70;;
21418;SDS011;10870;51.384;10.316;2023-03-04T02:45:01;31.77;;;15.25;;
21418;SDS011;10870;51.384;10.316;2023-03-04T02:47:08;35.88;;;15.73;;
21418;SDS011;10870;51.384;10.316;2023-03-04T02:49:12;34.75;;;16.42;;
21418;SDS011;10870;51.384;10.316;2023-03-04T02:51:17;35.00;;;15.88;;
21418;SDS011;10870;51.384;10.316;2023-03-04T02:53:20;32.22;;;15.20;;
21418;SDS011;10870;51.384;10.316;2023-03-04T02:55:23;33.22;;;17.00;;
21418;SDS011;10870;51.384;10.316;2023-03-04T02:57:30;46.67;;;17.35;;
21418;SDS011;10870;51.384;10.316;2023-03-04T02:59:34;40.67;;;16.27;;
21418;SDS011;10870;51.384;10.316;2023-03-04T03:01:35;34.47;;;14.98;;
21418;SDS011;10870;51.384;10.316;2023-03-04T03:03:40;32.55;;;13.90;;
21418;SDS011;10870;51.384;10.316;2023-03-04T03:05:41;43.35;;;15.27;;
21418;SDS011;10870;51.384;10.316;2023-03-04T03:07:45;38.15;;;14.48;;
21418;SDS011;10870;51.384;10.316;2023-03-04T03:09:47;34.35;;;14.85;;
21418;SDS011;10870;51.384;10.316;2023-03-04T03:11:52;33.38;;;14.00;;
21418;SDS011;10870;51.384;10.316;2023-03-04T03:13:56;33.90;;;14.40;;
21418;SDS011;10870;51.384;10.316;2023-03-04T03:15:58;28.73;;;13.68;;
21418;SDS011;10870;51.384;10.316;2023-03-04T03:18:02;35.05;;;13.02;;
21418;SDS011;10870;51.384;10.316;2023-03-04T03:20:03;40.60;;;16.25;;
21418;SDS011;10870;51.384;10.316;2023-03-04T03:22:09;34.70;;;14.13;;
21418;SDS011;10870;51.384;10.316;2023-03-04T03:24:11;31.00;;;13.00;;
21418;SDS011;10870;51.384;10.316;2023-03-04T03:26:13;36.13;;;12.60;;
21418;SDS011;10870;51.384;10.316;2023-03-04T03:28:16;28.33;;;12.68;;
21418;SDS011;10870;51.384;10.316;2023-03-04T03:30:17;36.58;;;14.88;;
21418;SDS011;10870;51.384;10.316;2023-03-04T03:32:20;27.20;;;11.77;;
21418;SDS011;10870;51.384;10.316;2023-03-04T03:34:23;34.15;;;13.45;;
21418;SDS011;10870;51.384;10.316;2023-03-04T03:36:26;31.05;;;13.27;;
21418;SDS011;10870;51.384;10.316;2023-03-04T03:38:30;34.88;;;13.43;;
21418;SDS011;10870;51.384;10.316;2023-03-04T03:40:32;36.67;;;14.48;;
21418;SDS011;10870;51.384;10.316;2023-03-04T03:42:35;43.83;;;15.45;;
21418;SDS011;10870;51.384;10.316;2023-03-04T03:44:37;36.33;;;16.13;;
21418;SDS011;10870;51.384;10.316;2023-03-04T03:46:41;46.05;;;13.38;;
21418;SDS011;10870;51.384;10.316;2023-03-04T03:48:47;30.00;;;13.23;;
21418;SDS011;10870;51.384;10.316;2023-03-04T03:50:53;29.73;;;12.40;;
21418;SDS011;10870;51.384;10.316;2023-03-04T03:53:00;30.27;;;11.75;;
21418;SDS011;10870;51.384;10.316;2023-03-04T03:55:03;35.33;;;12.60;;
21418;SDS011;10870;51.384;10.316;2023-03-04T03:57:05;28.13;;;10.80;;
21418;SDS011;10870;51.384;10.316;2023-03-04T03:59:07;40.47;;;12.80;;
21418;SDS011;10870;51.384;10.316;2023-03-04T04:01:09;29.00;;;12.10;;
21418;SDS011;10870;51.384;10.316;2023-03-04T04:03:13;32.55;;;11.60;;
21418;SDS011;10870;51.384;10.316;2023-03-04T04:05:18;32.53;;;12.07;;
21418;SDS011;10870;51.384;10.316;2023-03-04T04:07:20;36.50;;;13.15;;
21418;SDS011;10870;51.384;10.316;2023-03-04T04:09:22;39.42;;;13.00;;
21418;SDS011;10870;51.384;10.316;2023-03-04T04:11:26;43.15;;;12.63;;
21418;SDS011;10870;51.384;10.316;2023-03-04T04:13:28;35.63;;;12.38;;
21418;SDS011;10870;51.384;10.316;2023-03-04T04:15:30;26.23;;;11.93;;
21418;SDS011;10870;51.384;10.316;2023-03-04T04:17:35;32.63;;;10.93;;
21418;SDS011;10870;51.384;10.316;2023-03-04T04:19:39;34.92;;;11.05;;
21418;SDS011;10870;51.384;10.316;2023-03-04T04:21:41;37.33;;;10.43;;
21418;SDS011;10870;51.384;10.316;2023-03-04T04:23:43;32.50;;;12.20;;
21418;SDS011;10870;51.384;10.316;2023-03-04T04:25:54;28.83;;;10.60;;
21418;SDS011;10870;51.384;10.316;2023-03-04T04:27:58;28.48;;;11.05;;
21418;SDS011;10870;51.384;10.316;2023-03-04T04:30:00;29.42;;;10.90;;
21418;SDS011;10870;51.384;10.316;2023-03-04T04:32:01;25.70;;;9.85;;
21418;SDS011;10870;51.384;10.316;2023-03-04T04:34:03;34.25;;;11.73;;
21418;SDS011;10870;51.384;10.316;2023-03-04T04:36:08;27.98;;;10.85;;
21418;SDS011;10870;51.384;10.316;2023-03-04T04:38:12;24.77;;;10.63;;
21418;SDS011;10870;51.384;10.316;2023-03-04T04:40:14;38.35;;;10.88;;
21418;SDS011;10870;51.384;10.316;2023-03-04T04:42:17;27.10;;;10.35;;
21418;SDS011;10870;51.384;10.316;2023-03-04T04:44:20;27.05;;;10.43;;
21418;SDS011;10870;51.384;10.316;2023-03-04T04:46:21;30.77;;;10.95;;
21418;SDS011;10870;51.384;10.316;2023-03-04T04:48:24;30.13;;;9.73;;
21418;SDS011;10870;51.384;10.316;2023-03-04T04:50:27;38.72;;;11.80;;
21418;SDS011;10870;51.384;10.316;2023-03-04T04:52:31;32.55;;;10.90;;
21418;SDS011;10870;51.384;10.316;2023-03-04T04:54:32;34.88;;;11.57;;
21418;SDS011;10870;51.384;10.316;2023-03-04T04:56:36;20.63;;;8.75;;
21418;SDS011;10870;51.384;10.316;2023-03-04T04:58:40;30.75;;;9.63;;
21418;SDS011;10870;51.384;10.316;2023-03-04T05:00:41;24.60;;;8.68;;
21418;SDS011;10870;51.384;10.316;2023-03-04T05:02:42;28.48;;;9.07;;
21418;SDS011;10870;51.384;10.316;2023-03-04T05:04:45;30.33;;;9.18;;
21418;SDS011;10870;51.384;10.316;2023-03-04T05:06:49;23.95;;;9.52;;
21418;SDS011;10870;51.384;10.316;2023-03-04T05:08:51;28.00;;;9.63;;
21418;SDS011;10870;51.384;10.316;2023-03-04T05:10:53;33.22;;;10.63;;
21418;SDS011;10870;51.384;10.316;2023-03-04T05:12:57;24.88;;;9.15;;
21418;SDS011;10870;51.384;10.316;2023-03-04T05:15:01;28.63;;;9.30;;
21418;SDS011;10870;51.384;10.316;2023-03-04T05:17:04;28.33;;;9.57;;
21418;SDS011;10870;51.384;10.316;2023-03-04T05:19:08;29.00;;;8.75;;
21418;SDS011;10870;51.384;10.316;2023-03-04T05:21:10;32.83;;;9.88;;
21418;SDS011;10870;51.384;10.316;2023-03-04T05:23:13;29.48;;;9.52;;
21418;SDS011;10870;51.384;10.316;2023-03-04T05:25:17;25.30;;;9.02;;
21418;SDS011;10870;51.384;10.316;2023-03-04T05:27:19;27.15;;;8.68;;
21418;SDS011;10870;51.384;10.316;2023-03-04T05:29:21;33.45;;;10.02;;
21418;SDS011;10870;51.384;10.316;2023-03-04T05:31:24;24.00;;;8.32;;
21418;SDS011;10870;51.384;10.316;2023-03-04T05:33:26;23.40;;;10.48;;
21418;SDS011;10870;51.384;10.316;2023-03-04T05:35:30;27.30;;;8.45;;
21418;SDS011;10870;51.384;10.316;2023-03-04T05:37:34;29.63;;;9.65;;
21418;SDS011;10870;51.384;10.316;2023-03-04T05:39:36;29.50;;;9.30;;
21418;SDS011;10870;51.384;10.316;2023-03-04T05:41:39;24.50;;;9.55;;
21418;SDS011;10870;51.384;10.316;2023-03-04T05:43:40;21.00;;;7.60;;
21418;SDS011;10870;51.384;10.316;2023-03-04T05:45:49;22.00;;;8.95;;
21418;SDS011;10870;51.384;10.316;2023-03-04T05:47:53;19.67;;;8.07;;
21418;SDS011;10870;51.384;10.316;2023-03-04T05:50:00;27.02;;;8.40;;
21418;SDS011;10870;51.384;10.316;2023-03-04T05:52:01;32.15;;;9.35;;
21418;SDS011;10870;51.384;10.316;2023-03-04T05:54:04;20.95;;;7.35;;
21418;SDS011;10870;51.384;10.316;2023-03-04T05:56:11;24.83;;;7.95;;
21418;SDS011;10870;51.384;10.316;2023-03-04T05:58:14;26.77;;;7.70;;
21418;SDS011;10870;51.384;10.316;2023-03-04T06:00:16;24.17;;;8.15;;
21418;SDS011;10870;51.384;10.316;2023-03-04T06:02:19;18.02;;;6.93;;
21418;SDS011;10870;51.384;10.316;2023-03-04T06:04:21;19.70;;;6.70;;
21418;SDS011;10870;51.384;10.316;2023-03-04T06:06:23;14.88;;;7.22;;
21418;SDS011;10870;51.384;10.316;2023-03-04T06:08:24;29.08;;;7.40;;
21418;SDS011;10870;51.384;10.316;2023-03-04T06:10:26;23.60;;;6.88;;
21418;SDS011;10870;51.384;10.316;2023-03-04T06:12:29;28.88;;;6.47;;
21418;SDS011;10870;51.384;10.316;2023-03-04T06:14:30;21.73;;;7.25;;
21418;SDS011;10870;51.384;10.316;2023-03-04T06:16:32;22.08;;;6.68;;
21418;SDS011;10870;51.384;10.316;2023-03-04T06:18:35;19.02;;;6.43;;
21418;SDS011;10870;51.384;10.316;2023-03-04T06:20:40;24.80;;;7.07;;
21418;SDS011;10870;51.384;10.316;2023-03-04T06:22:44;25.63;;;7.47;;
21418;SDS011;10870;51.384;10.316;2023-03-04T06:24:45;20.85;;;7.07;;
21418;SDS011;10870;51.384;10.316;2023-03-04T06:26:49;22.65;;;6.72;;
21418;SDS011;10870;51.384;10.316;2023-03-04T06:28:50;17.90;;;6.80;;
21418;SDS011;10870;51.384;10.316;2023-03-04T06:30:56;20.20;;;5.55;;
21418;SDS011;10870;51.384;10.316;2023-03-04T06:32:58;20.70;;;5.13;;
21418;SDS011;10870;51.384;10.316;2023-03-04T06:35:00;14.65;;;5.78;;
21418;SDS011;10870;51.384;10.316;2023-03-04T06:37:01;17.95;;;6.40;;
21418;SDS011;10870;51.384;10.316;2023-03-04T06:39:08;16.02;;;5.53;;
21418;SDS011;10870;51.384;10.316;2023-03-04T06:41:11;18.65;;;6.30;;
21418;SDS011;10870;51.384;10.316;2023-03-04T06:43:13;16.17;;;5.10;;
21418;SDS011;10870;51.384;10.316;2023-03-04T06:45:15;16.65;;;5.90;;
21418;SDS011;10870;51.384;10.316;2023-03-04T06:47:20;20.73;;;5.20;;
21418;SDS011;10870;51.384;10.316;2023-03-04T06:49:21;22.55;;;7.13;;
21418;SDS011;10870;51.384;10.316;2023-03-04T06:51:23;17.80;;;5.18;;
21418;SDS011;10870;51.384;10.316;2023-03-04T06:53:25;15.43;;;4.82;;
21418;SDS011;10870;51.384;10.316;2023-03-04T06:55:29;23.27;;;6.05;;
21418;SDS011;10870;51.384;10.316;2023-03-04T06:57:31;21.38;;;5.00;;
21418;SDS011;10870;51.384;10.316;2023-03-04T06:59:40;22.95;;;6.82;;
21418;SDS011;10870;51.384;10.316;2023-03-04T07:01:42;13.98;;;4.88;;
21418;SDS011;10870;51.384;10.316;2023-03-04T07:03:50;13.23;;;4.60;;
21418;SDS011;10870;51.384;10.316;2023-03-04T07:05:51;10.75;;;4.47;;
21418;SDS011;10870;51.384;10.316;2023-03-04T07:07:53;17.70;;;4.90;;
21418;SDS011;10870;51.384;10.316;2023-03-04T07:09:55;23.35;;;5.03;;
21418;SDS011;10870;51.384;10.316;2023-03-04T07:12:01;19.40;;;5.03;;
21418;SDS011;10870;51.384;10.316;2023-03-04T07:14:02;11.23;;;4.38;;
21418;SDS011;10870;51.384;10.316;2023-03-04T07:16:07;20.20;;;4.35;;
21418;SDS011;10870;51.384;10.316;2023-03-04T07:18:12;18.20;;;5.88;;
21418;SDS011;10870;51.384;10.316;2023-03-04T07:20:17;15.32;;;5.18;;
21418;SDS011;10870;51.384;10.316;2023-03-04T07:22:21;16.35;;;4.60;;
21418;SDS011;10870;51.384;10.316;2023-03-04T07:24:25;21.40;;;5.97;;
21418;SDS011;10870;51.384;10.316;2023-03-04T07:26:32;19.05;;;5.38;;
21418;SDS011;10870;51.384;10.316;2023-03-04T07:28:34;12.30;;;4.53;;
21418;SDS011;10870;51.384;10.316;2023-03-04T07:30:37;14.57;;;4.55;;
21418;SDS011;10870;51.384;10.316;2023-03-04T07:32:39;18.75;;;5.22;;
21418;SDS011;10870;51.384;10.316;2023-03-04T07:34:42;17.38;;;4.93;;
21418;SDS011;10870;51.384;10.316;2023-03-04T07:36:45;16.98;;;4.97;;
21418;SDS011;10870;51.384;10.316;2023-03-04T07:38:47;20.90;;;5.80;;
21418;SDS011;10870;51.384;10.316;2023-03-04T07:40:57;13.55;;;4.35;;
21418;SDS011;10870;51.384;10.316;2023-03-04T07:43:04;12.63;;;4.68;;
21418;SDS011;10870;51.384;10.316;2023-03-04T07:45:08;17.85;;;5.43;;
21418;SDS011;10870;51.384;10.316;2023-03-04T07:47:11;21.35;;;4.95;;
21418;SDS011;10870;51.384;10.316;2023-03-04T07:49:13;11.75;;;4.45;;
21418;SDS011;10870;51.384;10.316;2023-03-04T07:51:18;17.23;;;5.05;;
21418;SDS011;10870;51.384;10.316;2023-03-04T07:53:28;9.00;;;4.67;;
21418;SDS011;10870;51.384;10.316;2023-03-04T07:55:31;15.50;;;4.07;;
21418;SDS011;10870;51.384;10.316;2023-03-04T07:57:38;9.63;;;4.13;;
21418;SDS011;10870;51.384;10.316;2023-03-04T07:59:41;11.68;;;4.03;;
21418;SDS011;10870;51.384;10.316;2023-03-04T08:01:47;12.70;;;4.47;;
21418;SDS011;10870;51.384;10.316;2023-03-04T08:03:55;10.77;;;3.53;;
21418;SDS011;10870;51.384;10.316;2023-03-04T08:06:12;8.63;;;3.40;;
21418;SDS011;10870;51.384;10.316;2023-03-04T08:08:16;9.55;;;4.43;;
21418;SDS011;10870;51.384;10.316;2023-03-04T08:10:40;14.32;;;5.05;;
21418;SDS011;10870;51.384;10.316;2023-03-04T08:12:45;14.57;;;4.35;;
21418;SDS011;10870;51.384;10.316;2023-03-04T08:14:47;12.77;;;4.10;;
21418;SDS011;10870;51.384;10.316;2023-03-04T08:16:51;6.97;;;3.20;;
21418;SDS011;10870;51.384;10.316;2023-03-04T08:19:01;11.75;;;4.18;;
21418;SDS011;10870;51.384;10.316;2023-03-04T08:21:10;9.23;;;3.50;;
21418;SDS011;10870;51.384;10.316;2023-03-04T08:23:15;10.50;;;4.13;;
21418;SDS011;10870;51.384;10.316;2023-03-04T08:25:29;8.50;;;3.45;;
21418;SDS011;10870;51.384;10.316;2023-03-04T08:27:31;15.23;;;5.03;;
21418;SDS011;10870;51.384;10.316;2023-03-04T08:29:39;10.77;;;3.92;;
21418;SDS011;10870;51.384;10.316;2023-03-04T08:31:42;10.00;;;5.28;;
21418;SDS011;10870;51.384;10.316;2023-03-04T08:33:46;11.02;;;4.43;;
21418;SDS011;10870;51.384;10.316;2023-03-04T08:35:50;10.02;;;4.30;;
21418;SDS011;10870;51.384;10.316;2023-03-04T08:37:58;9.38;;;4.07;;
21418;SDS011;10870;51.384;10.316;2023-03-04T08:40:04;11.68;;;3.28;;
21418;SDS011;10870;51.384;10.316;2023-03-04T08:42:07;14.27;;;4.32;;
21418;SDS011;10870;51.384;10.316;2023-03-04T08:44:11;13.65;;;4.32;;
21418;SDS011;10870;51.384;10.316;2023-03-04T08:46:13;12.95;;;3.95;;
21418;SDS011;10870;51.384;10.316;2023-03-04T08:48:16;9.13;;;3.13;;
21418;SDS011;10870;51.384;10.316;2023-03-04T08:50:19;9.55;;;3.55;;
21418;SDS011;10870;51.384;10.316;2023-03-04T08:52:23;13.90;;;3.70;;
21418;SDS011;10870;51.384;10.316;2023-03-04T08:54:27;5.90;;;3.47;;
21418;SDS011;10870;51.384;10.316;2023-03-04T08:56:30;10.10;;;3.80;;
21418;SDS011;10870;51.384;10.316;2023-03-04T08:58:31;8.40;;;3.83;;
21418;SDS011;10870;51.384;10.316;2023-03-04T09:00:35;8.05;;;4.05;;
21418;SDS011;10870;51.384;10.316;2023-03-04T09:02:38;11.88;;;4.68;;
21418;SDS011;10870;51.384;10.316;2023-03-04T09:04:42;9.85;;;3.40;;
21418;SDS011;10870;51.384;10.316;2023-03-04T09:06:46;11.02;;;3.75;;
21418;SDS011;10870;51.384;10.316;2023-03-04T09:08:51;9.65;;;3.67;;
21418;SDS011;10870;51.384;10.316;2023-03-04T09:10:56;9.45;;;3.65;;
21418;SDS011;10870;51.384;10.316;2023-03-04T09:12:59;14.80;;;4.45;;
21418;SDS011;10870;51.384;10.316;2023-03-04T09:15:01;11.90;;;4.20;;
21418;SDS011;10870;51.384;10.316;2023-03-04T09:17:09;12.82;;;3.70;;
21418;SDS011;10870;51.384;10.316;2023-03-04T09:19:20;5.82;;;3.13;;
21418;SDS011;10870;51.384;10.316;2023-03-04T09:21:22;9.10;;;3.85;;
21418;SDS011;10870;51.384;10.316;2023-03-04T09:23:24;9.02;;;3.97;;
21418;SDS011;10870;51.384;10.316;2023-03-04T09:25:29;6.82;;;4.03;;
21418;SDS011;10870;51.384;10.316;2023-03-04T09:27:35;8.07;;;3.22;;
21418;SDS011;10870;51.384;10.316;2023-03-04T09:29:49;6.80;;;3.60;;
21418;SDS011;10870;51.384;10.316;2023-03-04T09:31:53;12.33;;;3.90;;
21418;SDS011;10870;51.384;10.316;2023-03-04T09:34:00;13.50;;;4.90;;
21418;SDS011;10870;51.384;10.316;2023-03-04T09:36:16;13.63;;;4.22;;
21418;SDS011;10870;51.384;10.316;2023-03-04T09:38:23;8.90;;;3.97;;
21418;SDS011;10870;51.384;10.316;2023-03-04T09:40:52;6.80;;;4.38;;
21418;SDS011;10870;51.384;10.316;2023-03-04T09:42:57;7.75;;;3.90;;
21418;SDS011;10870;51.384;10.316;2023-03-04T09:45:03;7.80;;;4.18;;
21418;SDS011;10870;51.384;10.316;2023-03-04T09:47:15;10.32;;;3.92;;
21418;SDS011;10870;51.384;10.316;2023-03-04T09:49:18;12.10;;;4.47;;
21418;SDS011;10870;51.384;10.316;2023-03-04T09:53:54;9.43;;;4.50;;
21418;SDS011;10870;51.384;10.316;2023-03-04T09:56:02;7.53;;;4.13;;
21418;SDS011;10870;51.384;10.316;2023-03-04T09:58:06;13.43;;;5.57;;
21418;SDS011;10870;51.384;10.316;2023-03-04T10:00:22;12.10;;;3.60;;
21418;SDS011;10870;51.384;10.316;2023-03-04T10:03:13;6.97;;;3.72;;
21418;SDS011;10870;51.384;10.316;2023-03-04T10:04:54;9.80;;;3.75;;
21418;SDS011;10870;51.384;10.316;2023-03-04T10:09:10;6.85;;;3.67;;
21418;SDS011;10870;51.384;10.316;2023-03-04T10:11:22;12.57;;;4.28;;
21418;SDS011;10870;51.384;10.316;2023-03-04T10:13:29;7.97;;;5.18;;
21418;SDS011;10870;51.384;10.316;2023-03-04T10:15:40;8.55;;;4.07;;
21418;SDS011;10870;51.384;10.316;2023-03-04T10:17:48;8.73;;;4.85;;
21418;SDS011;10870;51.384;10.316;2023-03-04T10:19:59;9.70;;;3.67;;
21418;SDS011;10870;51.384;10.316;2023-03-04T10:22:08;8.90;;;3.45;;
21418;SDS011;10870;51.384;10.316;2023-03-04T10:24:19;7.40;;;3.47;;
21418;SDS011;10870;51.384;10.316;2023-03-04T10:26:24;9.48;;;4.20;;
21418;SDS011;10870;51.384;10.316;2023-03-04T10:28:33;10.75;;;4.00;;
21418;SDS011;10870;51.384;10.316;2023-03-04T10:32:44;7.25;;;2.97;;
21418;SDS011;10870;51.384;10.316;2023-03-04T10:34:48;11.63;;;3.53;;
21418;SDS011;10870;51.384;10.316;2023-03-04T10:36:54;7.97;;;3.47;;
21418;SDS011;10870;51.384;10.316;2023-03-04T10:39:02;4.75;;;2.85;;
21418;SDS011;10870;51.384;10.316;2023-03-04T10:41:13;5.47;;;3.25;;
21418;SDS011;10870;51.384;10.316;2023-03-04T10:43:17;6.43;;;3.10;;
21418;SDS011;10870;51.384;10.316;2023-03-04T10:45:24;10.27;;;4.15;;
21418;SDS011;10870;51.384;10.316;2023-03-04T10:47:39;4.68;;;2.97;;
21418;SDS011;10870;51.384;10.316;2023-03-04T10:49:51;12.50;;;4.32;;
21418;SDS011;10870;51.384;10.316;2023-03-04T10:58:39;5.85;;;3.00;;
21418;SDS011;10870;51.384;10.316;2023-03-04T11:00:41;7.60;;;3.33;;
21418;SDS011;10870;51.384;10.316;2023-03-04T11:02:42;6.40;;;2.67;;
21418;SDS011;10870;51.384;10.316;2023-03-04T11:04:50;5.20;;;2.85;;
21418;SDS011;10870;51.384;10.316;2023-03-04T11:07:01;5.68;;;2.65;;
21418;SDS011;10870;51.384;10.316;2023-03-04T11:09:16;4.90;;;3.00;;
21418;SDS011;10870;51.384;10.316;2023-03-04T11:11:22;4.18;;;2.83;;
21418;SDS011;10870;51.384;10.316;2023-03-04T11:13:24;7.78;;;3.22;;
21418;SDS011;10870;51.384;10.316;2023-03-04T11:15:47;4.63;;;2.72;;
21418;SDS011;10870;51.384;10.316;2023-03-04T11:17:51;6.78;;;3.50;;
21418;SDS011;10870;51.384;10.316;2023-03-04T11:20:21;4.88;;;2.60;;
21418;SDS011;10870;51.384;10.316;2023-03-04T11:22:27;5.43;;;2.70;;
21418;SDS011;10870;51.384;10.316;2023-03-04T11:24:32;5.38;;;3.15;;
21418;SDS011;10870;51.384;10.316;2023-03-04T11:26:35;3.72;;;2.83;;
21418;SDS011;10870;51.384;10.316;2023-03-04T11:30:49;8.75;;;2.90;;
21418;SDS011;10870;51.384;10.316;2023-03-04T11:32:54;5.28;;;2.65;;
21418;SDS011;10870;51.384;10.316;2023-03-04T11:39:10;6.63;;;2.90;;
21418;SDS011;10870;51.384;10.316;2023-03-04T11:41:49;4.75;;;2.47;;
21418;SDS011;10870;51.384;10.316;2023-03-04T11:43:47;4.88;;;2.58;;
21418;SDS011;10870;51.384;10.316;2023-03-04T11:48:17;4.95;;;3.05;;
21418;SDS011;10870;51.384;10.316;2023-03-04T11:54:39;6.80;;;3.85;;
21418;SDS011;10870;51.384;10.316;2023-03-04T11:56:52;5.70;;;2.60;;
21418;SDS011;10870;51.384;10.316;2023-03-04T11:59:05;6.82;;;2.70;;
21418;SDS011;10870;51.384;10.316;2023-03-04T12:17:08;5.88;;;1.95;;
21418;SDS011;10870;51.384;10.316;2023-03-04T12:28:39;5.32;;;2.33;;
21418;SDS011;10870;51.384;10.316;2023-03-04T12:39:39;2.55;;;2.08;;
21418;SDS011;10870;51.384;10.316;2023-03-04T12:46:33;4.03;;;2.70;;
21418;SDS011;10870;51.384;10.316;2023-03-04T12:48:37;4.65;;;2.38;;
21418;SDS011;10870;51.384;10.316;2023-03-04T12:55:25;2.90;;;2.30;;
21418;SDS011;10870;51.384;10.316;2023-03-04T12:57:29;3.78;;;2.80;;
21418;SDS011;10870;51.384;10.316;2023-03-04T12:59:33;8.18;;;3.03;;
21418;SDS011;10870;51.384;10.316;2023-03-04T13:08:28;8.57;;;3.80;;
21418;SDS011;10870;51.384;10.316;2023-03-04T13:10:30;6.00;;;3.65;;
21418;SDS011;10870;51.384;10.316;2023-03-04T13:19:56;4.32;;;3.08;;
21418;SDS011;10870;51.384;10.316;2023-03-04T13:24:01;5.50;;;2.72;;
21418;SDS011;10870;51.384;10.316;2023-03-04T13:28:31;4.93;;;2.60;;
21418;SDS011;10870;51.384;10.316;2023-03-04T13:32:35;4.55;;;2.78;;
21418;SDS011;10870;51.384;10.316;2023-03-04T13:36:53;3.95;;;3.10;;
21418;SDS011;10870;51.384;10.316;2023-03-04T13:38:59;6.90;;;3.45;;
21418;SDS011;10870;51.384;10.316;2023-03-04T13:43:23;4.20;;;3.47;;
21418;SDS011;10870;51.384;10.316;2023-03-04T13:45:28;5.32;;;3.30;;
21418;SDS011;10870;51.384;10.316;2023-03-04T13:47:42;7.72;;;4.70;;
21418;SDS011;10870;51.384;10.316;2023-03-04T13:49:46;6.50;;;3.90;;